Time;durP1;ratioP1;P1;durP2;ratioP2;P2;SDS_P1;SDS_P2;PMS_P1;PMS_P2;Temp;Humidity;BMP_temperature;BMP_pressure;BME280_temperature;BME280_humidity;BME280_pressure;Samples;Min_cycle;Max_cycle;Signal;HPM_P1;HPM_P2
2023/04/09 00:01:47;;;;;;;1.85;1.67;;;5.00;99.90;;;;;;5051751;28;20315;-78
2023/04/09 00:04:13;;;;;;;1.95;1.85;;;4.90;99.90;;;;;;5051003;28;20500;-78
2023/04/09 00:06:38;;;;;;;1.48;1.38;;;4.90;99.90;;;;;;5051740;28;20436;-78
2023/04/09 00:09:04;;;;;;;1.88;1.67;;;4.90;99.90;;;;;;5051436;28;20029;-78
2023/04/09 00:11:30;;;;;;;1.95;1.75;;;5.00;99.90;;;;;;5050683;28;20075;-78
2023/04/09 00:13:57;;;;;;;1.70;1.60;;;5.00;99.90;;;;;;5050806;28;20446;-79
2023/04/09 00:16:23;;;;;;;1.55;1.45;;;5.00;99.90;;;;;;5051604;28;20033;-77
2023/04/09 00:18:48;;;;;;;1.27;1.20;;;5.00;99.90;;;;;;5051858;28;20395;-77
2023/04/09 00:21:15;;;;;;;1.30;1.20;;;5.00;99.90;;;;;;5049586;28;20366;-77
2023/04/09 00:23:41;;;;;;;1.50;1.40;;;5.00;99.90;;;;;;5050744;28;20433;-76
2023/04/09 00:26:07;;;;;;;1.40;1.30;;;5.00;99.90;;;;;;5046925;28;20033;-78
2023/04/09 00:28:33;;;;;;;1.60;1.50;;;5.00;99.90;;;;;;5049776;28;20025;-77
2023/04/09 00:30:59;;;;;;;2.33;1.73;;;5.00;99.90;;;;;;5050062;28;20033;-77
2023/04/09 00:33:25;;;;;;;1.95;1.75;;;5.00;99.90;;;;;;5053097;28;20533;-77
2023/04/09 00:35:51;;;;;;;1.30;1.17;;;5.10;99.90;;;;;;5054111;28;20045;-77
2023/04/09 00:38:16;;;;;;;1.85;1.30;;;5.10;99.90;;;;;;5033747;28;20125;-77
2023/04/09 00:40:42;;;;;;;1.88;1.67;;;5.10;99.90;;;;;;5033471;28;20130;-78
2023/04/09 00:43:08;;;;;;;1.63;1.38;;;5.10;99.90;;;;;;5031894;28;20029;-77
2023/04/09 00:45:35;;;;;;;1.13;1.00;;;5.10;99.90;;;;;;5038096;28;20024;-78
2023/04/09 00:48:00;;;;;;;0.95;0.90;;;5.10;99.90;;;;;;5051598;28;20075;-77
2023/04/09 00:50:26;;;;;;;0.80;0.73;;;5.10;99.90;;;;;;5056028;28;20033;-77
2023/04/09 00:52:52;;;;;;;1.30;1.17;;;5.10;99.90;;;;;;5055912;28;20071;-79
2023/04/09 00:55:19;;;;;;;1.25;1.15;;;5.10;99.90;;;;;;5051114;28;20107;-77
2023/04/09 00:57:45;;;;;;;1.38;1.27;;;5.20;99.90;;;;;;5067094;28;20040;-80
2023/04/09 01:00:11;;;;;;;1.65;1.40;;;5.20;99.90;;;;;;5073012;28;20018;-79
2023/04/09 01:02:37;;;;;;;0.75;0.75;;;5.30;99.90;;;;;;5060002;28;20133;-78
2023/04/09 01:05:04;;;;;;;1.52;1.23;;;5.30;99.90;;;;;;5052239;28;20137;-77
2023/04/09 01:07:45;;;;;;;1.30;1.17;;;5.30;99.90;;;;;;5052643;28;20366;-78
2023/04/09 01:10:40;;;;;;;1.45;1.35;;;5.30;99.90;;;;;;5053782;28;20029;-75
2023/04/09 01:13:07;;;;;;;1.20;1.10;;;5.20;99.90;;;;;;5057470;28;20384;-77
2023/04/09 01:15:40;;;;;;;1.10;1.10;;;5.20;99.90;;;;;;5059115;28;20109;-76
2023/04/09 01:18:22;;;;;;;1.10;1.05;;;5.20;99.90;;;;;;5040840;28;20079;-77
2023/04/09 01:20:56;;;;;;;1.40;1.30;;;5.20;99.90;;;;;;5030307;28;20427;-78
2023/04/09 01:23:42;;;;;;;0.90;0.90;;;5.20;99.90;;;;;;5050894;28;20028;-77
2023/04/09 01:26:26;;;;;;;1.50;1.35;;;5.20;99.90;;;;;;5050834;28;20086;-78
2023/04/09 01:28:53;;;;;;;1.00;1.00;;;5.20;99.90;;;;;;5031134;28;20045;-78
2023/04/09 01:31:24;;;;;;;1.10;1.00;;;5.20;99.90;;;;;;5031442;28;20095;-78
2023/04/09 01:33:51;;;;;;;0.93;0.90;;;5.20;99.90;;;;;;5031829;28;20424;-76
2023/04/09 01:36:19;;;;;;;1.35;1.25;;;5.20;99.90;;;;;;5031607;28;20098;-78
2023/04/09 01:38:47;;;;;;;1.50;1.30;;;5.20;99.90;;;;;;5047709;28;20021;-78
2023/04/09 01:41:20;;;;;;;0.93;0.93;;;5.20;99.90;;;;;;5032308;28;20330;-77
2023/04/09 01:43:48;;;;;;;1.42;1.13;;;5.20;99.90;;;;;;5032042;28;20066;-77
2023/04/09 01:46:16;;;;;;;1.45;1.35;;;5.30;99.90;;;;;;5031315;28;20104;-78
2023/04/09 01:48:42;;;;;;;1.17;1.10;;;5.20;99.90;;;;;;5044771;28;20044;-77
2023/04/09 01:51:08;;;;;;;1.30;1.20;;;5.20;99.90;;;;;;5051276;28;20025;-76
2023/04/09 01:53:35;;;;;;;1.70;1.52;;;5.20;99.90;;;;;;5035077;28;20027;-77
2023/04/09 01:56:02;;;;;;;1.20;1.10;;;5.20;99.90;;;;;;5050052;28;20071;-76
2023/04/09 01:58:28;;;;;;;1.25;1.15;;;5.10;99.90;;;;;;5041495;28;20048;-76
2023/04/09 02:01:22;;;;;;;1.48;1.27;;;5.10;99.90;;;;;;5044486;28;20029;-76
2023/04/09 02:03:55;;;;;;;1.30;1.20;;;5.20;99.90;;;;;;5051718;28;20037;-78
2023/04/09 02:06:36;;;;;;;1.60;1.50;;;5.20;99.90;;;;;;5052435;28;20052;-77
2023/04/09 02:09:04;;;;;;;1.60;1.50;;;5.20;99.90;;;;;;5053520;28;20048;-76
2023/04/09 02:11:32;;;;;;;1.67;1.52;;;5.20;99.90;;;;;;5054977;28;20088;-76
2023/04/09 02:14:00;;;;;;;1.35;1.25;;;5.20;99.90;;;;;;5054725;28;20104;-76
2023/04/09 02:16:26;;;;;;;1.55;1.40;;;5.20;99.90;;;;;;5054517;28;20426;-77
2023/04/09 02:18:59;;;;;;;1.17;1.08;;;5.30;99.90;;;;;;5045586;28;20022;-78
2023/04/09 02:21:27;;;;;;;1.30;1.17;;;5.30;99.90;;;;;;5036236;28;20048;-77
2023/04/09 02:24:02;;;;;;;1.50;1.20;;;5.30;99.90;;;;;;5046548;28;20017;-77
2023/04/09 02:26:28;;;;;;;1.25;1.15;;;5.20;99.90;;;;;;5054642;28;20087;-77
2023/04/09 02:28:57;;;;;;;1.08;1.08;;;5.20;99.90;;;;;;5054415;28;20071;-77
2023/04/09 02:31:22;;;;;;;1.13;1.02;;;5.20;99.90;;;;;;5054680;28;20037;-78
2023/04/09 02:33:49;;;;;;;1.27;1.17;;;5.20;99.90;;;;;;5052248;28;20044;-77
2023/04/09 02:36:15;;;;;;;3.13;1.60;;;5.20;99.90;;;;;;5053493;28;20097;-77
2023/04/09 02:38:41;;;;;;;1.70;1.52;;;5.20;99.90;;;;;;5052365;28;20022;-78
2023/04/09 02:41:07;;;;;;;1.35;1.23;;;5.20;99.90;;;;;;5044625;28;20469;-78
2023/04/09 02:43:33;;;;;;;1.33;1.23;;;5.20;99.90;;;;;;5052844;28;20473;-78
2023/04/09 02:45:58;;;;;;;1.10;1.00;;;5.20;99.90;;;;;;5052172;28;20025;-78
2023/04/09 02:48:24;;;;;;;1.20;1.10;;;5.20;99.90;;;;;;5051357;28;20087;-77
2023/04/09 02:50:50;;;;;;;1.08;1.08;;;5.30;99.90;;;;;;5051961;28;20054;-77
2023/04/09 02:53:15;;;;;;;1.13;1.08;;;5.30;99.90;;;;;;5052836;28;20370;-77
2023/04/09 02:55:41;;;;;;;1.65;1.48;;;5.20;99.90;;;;;;5035614;28;20036;-78
2023/04/09 02:58:07;;;;;;;1.70;1.60;;;5.20;99.90;;;;;;5032589;28;20029;-78
2023/04/09 03:00:32;;;;;;;1.52;1.30;;;5.30;99.90;;;;;;5042802;28;20113;-76
2023/04/09 03:02:58;;;;;;;1.20;1.10;;;5.30;99.90;;;;;;5052451;28;20058;-78
2023/04/09 03:05:24;;;;;;;0.90;0.88;;;5.30;99.90;;;;;;5051927;28;20017;-76
2023/04/09 03:07:50;;;;;;;1.30;1.05;;;5.20;99.90;;;;;;5052223;28;20141;-77
2023/04/09 03:10:15;;;;;;;0.90;0.85;;;5.20;99.90;;;;;;5046969;28;20402;-78
2023/04/09 03:12:43;;;;;;;1.27;1.15;;;5.20;99.90;;;;;;5032260;28;20043;-76
2023/04/09 03:15:10;;;;;;;1.50;1.38;;;5.20;99.90;;;;;;5031402;28;20066;-77
2023/04/09 03:17:35;;;;;;;1.10;1.00;;;5.30;99.90;;;;;;5032143;28;20094;-78
2023/04/09 03:20:01;;;;;;;0.95;0.90;;;5.30;99.90;;;;;;5031926;28;20021;-77
2023/04/09 03:22:27;;;;;;;1.20;1.10;;;5.30;99.90;;;;;;5039813;28;20017;-78
2023/04/09 03:24:52;;;;;;;1.35;1.25;;;5.30;99.90;;;;;;5039913;28;20060;-78
2023/04/09 03:27:18;;;;;;;1.40;1.30;;;5.20;99.90;;;;;;5032430;28;20078;-78
2023/04/09 03:29:44;;;;;;;1.52;1.42;;;5.30;99.90;;;;;;5032417;28;20021;-77
2023/04/09 03:32:09;;;;;;;1.35;1.15;;;5.20;99.90;;;;;;5058629;28;20029;-78
2023/04/09 03:34:35;;;;;;;1.75;1.65;;;5.20;99.90;;;;;;5066749;28;20025;-81
2023/04/09 03:37:01;;;;;;;1.77;1.63;;;5.10;99.90;;;;;;5069585;28;20029;-78
2023/04/09 03:39:29;;;;;;;2.40;1.83;;;5.10;99.90;;;;;;5069715;28;20744;-78
2023/04/09 03:41:56;;;;;;;2.45;2.20;;;5.00;99.90;;;;;;5058796;28;20100;-76
2023/04/09 03:44:22;;;;;;;2.67;2.22;;;4.90;99.90;;;;;;5052723;28;20025;-77
2023/04/09 03:46:48;;;;;;;2.38;1.95;;;4.80;99.90;;;;;;5051428;28;20102;-78
2023/04/09 03:49:14;;;;;;;3.10;2.78;;;4.70;99.90;;;;;;5052500;28;20540;-77
2023/04/09 03:51:39;;;;;;;5.28;3.95;;;4.60;99.90;;;;;;5052376;28;20029;-77
2023/04/09 03:54:05;;;;;;;3.90;3.58;;;4.50;99.90;;;;;;5050791;28;20044;-77
2023/04/09 03:56:31;;;;;;;4.28;3.08;;;4.40;99.90;;;;;;5051616;28;20025;-76
2023/04/09 03:58:56;;;;;;;3.75;3.20;;;4.30;99.90;;;;;;5053204;28;20462;-78
2023/04/09 04:01:22;;;;;;;3.40;2.90;;;4.30;99.90;;;;;;5037583;28;20412;-76
2023/04/09 04:03:47;;;;;;;3.00;2.63;;;4.20;99.90;;;;;;5033547;28;20021;-77
2023/04/09 04:06:13;;;;;;;3.65;2.38;;;4.10;99.90;;;;;;5034161;28;20057;-77
2023/04/09 04:08:39;;;;;;;2.97;2.58;;;4.10;99.90;;;;;;5034719;28;20108;-77
2023/04/09 04:11:04;;;;;;;4.35;2.90;;;4.10;99.90;;;;;;5043786;28;20351;-77
2023/04/09 04:13:30;;;;;;;4.10;3.22;;;4.10;99.90;;;;;;5053598;28;20039;-78
2023/04/09 04:15:56;;;;;;;3.08;2.72;;;4.00;99.90;;;;;;5052776;28;20043;-77
2023/04/09 04:18:21;;;;;;;3.90;2.95;;;4.00;99.90;;;;;;5053732;28;20449;-78
2023/04/09 04:20:47;;;;;;;3.92;2.65;;;4.00;99.90;;;;;;5052122;28;20487;-78
2023/04/09 04:23:13;;;;;;;2.63;2.17;;;4.00;99.90;;;;;;5043788;28;20100;-78
2023/04/09 04:25:42;;;;;;;3.35;2.72;;;4.00;99.90;;;;;;5047865;28;20035;-78
2023/04/09 04:28:08;;;;;;;3.08;2.78;;;4.00;99.90;;;;;;5050795;28;20044;-77
2023/04/09 04:30:33;;;;;;;5.35;3.70;;;4.10;99.90;;;;;;5051176;28;20127;-78
2023/04/09 04:32:59;;;;;;;3.47;2.78;;;4.10;99.90;;;;;;5052289;28;20021;-78
2023/04/09 04:35:25;;;;;;;4.25;3.15;;;4.20;99.90;;;;;;5051695;28;20033;-77
2023/04/09 04:37:50;;;;;;;4.13;3.40;;;4.20;99.90;;;;;;5052487;28;20096;-77
2023/04/09 04:40:16;;;;;;;3.83;2.88;;;4.20;99.90;;;;;;5052439;28;20470;-77
2023/04/09 04:42:42;;;;;;;3.67;3.03;;;4.30;99.90;;;;;;5034394;28;20051;-78
2023/04/09 04:45:08;;;;;;;3.30;2.53;;;4.30;99.90;;;;;;5051865;28;20041;-77
2023/04/09 04:47:34;;;;;;;2.50;2.30;;;4.40;99.90;;;;;;5056824;28;20075;-78
2023/04/09 04:50:00;;;;;;;2.80;2.45;;;4.40;99.90;;;;;;5057052;28;20058;-78
2023/04/09 04:52:26;;;;;;;2.97;2.40;;;4.40;99.90;;;;;;5055128;28;20060;-77
2023/04/09 04:54:51;;;;;;;3.10;2.45;;;4.50;99.90;;;;;;5041565;28;20033;-76
2023/04/09 04:57:17;;;;;;;2.22;2.03;;;4.50;99.90;;;;;;5037709;28;20037;-78
2023/04/09 04:59:43;;;;;;;2.17;1.80;;;4.50;99.90;;;;;;5038978;28;20037;-77
2023/04/09 05:02:09;;;;;;;2.15;1.95;;;4.60;99.90;;;;;;5037021;28;20104;-76
2023/04/09 05:04:35;;;;;;;2.22;1.95;;;4.70;99.90;;;;;;5043495;28;21390;-78
2023/04/09 05:07:00;;;;;;;2.20;2.00;;;4.80;99.90;;;;;;5053204;28;20143;-76
2023/04/09 05:09:26;;;;;;;2.40;2.03;;;4.80;99.90;;;;;;5032833;28;20027;-76
2023/04/09 05:11:52;;;;;;;2.90;2.03;;;4.80;99.90;;;;;;5033947;28;20065;-76
2023/04/09 05:14:19;;;;;;;3.13;2.30;;;4.70;99.90;;;;;;5032860;28;20040;-76
2023/04/09 05:16:45;;;;;;;2.67;2.30;;;4.60;99.90;;;;;;5034820;28;20021;-76
2023/04/09 05:19:11;;;;;;;4.28;2.45;;;4.50;99.90;;;;;;5043556;28;20056;-77
2023/04/09 05:21:37;;;;;;;3.47;2.85;;;4.50;99.90;;;;;;5051285;28;20025;-78
2023/04/09 05:24:02;;;;;;;3.85;3.25;;;4.40;99.90;;;;;;5060937;28;20115;-77
2023/04/09 05:26:28;;;;;;;4.03;2.90;;;4.40;99.90;;;;;;5056524;28;20025;-77
2023/04/09 05:28:54;;;;;;;3.42;2.92;;;4.30;99.90;;;;;;5055025;28;20033;-77
2023/04/09 05:31:20;;;;;;;5.85;4.05;;;4.30;99.90;;;;;;5068499;28;20005;-78
2023/04/09 05:33:45;;;;;;;6.97;5.07;;;4.20;99.90;;;;;;5058800;28;20032;-78
2023/04/09 05:36:16;;;;;;;6.22;4.78;;;4.20;99.90;;;;;;5045356;28;20124;-77
2023/04/09 05:38:42;;;;;;;5.68;4.45;;;4.20;99.90;;;;;;5033019;28;20155;-75
2023/04/09 05:41:08;;;;;;;6.03;4.10;;;4.20;99.90;;;;;;5033787;28;20622;-77
2023/04/09 05:43:33;;;;;;;5.85;4.20;;;4.20;99.90;;;;;;5035486;28;20101;-77
2023/04/09 05:45:59;;;;;;;5.95;4.25;;;4.30;99.90;;;;;;5036038;28;20057;-77
2023/04/09 05:48:25;;;;;;;4.55;4.03;;;4.30;99.90;;;;;;5036562;28;20030;-77
2023/04/09 05:50:53;;;;;;;4.53;3.63;;;4.50;99.90;;;;;;5035047;28;20053;-76
2023/04/09 05:53:20;;;;;;;4.53;3.65;;;4.60;99.90;;;;;;5044743;28;20517;-77
2023/04/09 05:55:48;;;;;;;4.35;3.38;;;4.70;99.90;;;;;;5037612;28;20450;-77
2023/04/09 05:58:14;;;;;;;3.70;3.10;;;4.80;99.90;;;;;;5034839;28;20036;-78
2023/04/09 06:00:41;;;;;;;4.65;3.60;;;4.80;99.90;;;;;;5036452;28;20323;-77
2023/04/09 06:03:08;;;;;;;4.63;3.53;;;4.80;99.90;;;;;;5035624;28;20446;-77
2023/04/09 06:05:34;;;;;;;4.15;3.55;;;4.80;99.90;;;;;;5055392;28;20017;-77
2023/04/09 06:08:00;;;;;;;5.00;3.60;;;4.90;99.90;;;;;;5055809;28;20024;-78
2023/04/09 06:10:26;;;;;;;4.82;3.60;;;4.90;99.90;;;;;;5056033;28;20100;-76
2023/04/09 06:12:51;;;;;;;4.25;3.47;;;4.90;99.90;;;;;;5055857;28;20382;-77
2023/04/09 06:15:17;;;;;;;3.90;3.03;;;5.00;99.90;;;;;;5055127;28;20021;-76
2023/04/09 06:17:43;;;;;;;4.57;3.25;;;5.00;99.90;;;;;;5056241;28;20108;-76
2023/04/09 06:20:10;;;;;;;4.10;3.28;;;5.10;99.90;;;;;;5055706;28;20092;-76
2023/04/09 06:22:36;;;;;;;3.40;2.88;;;5.20;99.90;;;;;;5051290;28;20013;-77
2023/04/09 06:25:02;;;;;;;4.07;3.55;;;5.30;99.90;;;;;;5047168;28;20101;-77
2023/04/09 06:27:27;;;;;;;4.85;3.08;;;5.30;99.90;;;;;;5056134;28;20052;-76
2023/04/09 06:29:53;;;;;;;2.63;2.38;;;5.40;99.90;;;;;;5056201;28;20067;-76
2023/04/09 06:32:19;;;;;;;2.67;2.47;;;5.50;99.90;;;;;;5053777;28;20430;-77
2023/04/09 06:34:45;;;;;;;5.15;3.97;;;5.50;99.90;;;;;;5053548;28;20143;-77
2023/04/09 06:37:10;;;;;;;5.82;3.85;;;5.60;99.90;;;;;;5054860;28;20033;-77
2023/04/09 06:39:36;;;;;;;4.60;3.72;;;5.60;99.90;;;;;;5054730;28;20025;-77
2023/04/09 06:42:02;;;;;;;5.50;4.40;;;5.60;99.90;;;;;;5055352;28;20032;-77
2023/04/09 06:44:29;;;;;;;5.75;4.55;;;5.70;99.90;;;;;;5052605;28;20481;-78
2023/04/09 06:46:54;;;;;;;5.82;4.55;;;5.70;99.90;;;;;;5054737;28;20395;-78
2023/04/09 06:49:20;;;;;;;5.00;3.85;;;5.80;99.90;;;;;;5054591;28;20025;-76
2023/04/09 06:51:46;;;;;;;4.90;3.72;;;5.90;99.90;;;;;;5049938;28;20033;-75
2023/04/09 06:54:11;;;;;;;4.07;2.95;;;6.00;99.90;;;;;;5046248;28;20025;-79
2023/04/09 06:56:37;;;;;;;3.88;3.45;;;6.10;99.90;;;;;;5053576;28;20059;-77
2023/04/09 06:59:03;;;;;;;4.18;3.70;;;6.20;99.90;;;;;;5053995;28;20059;-77
2023/04/09 07:01:28;;;;;;;4.45;3.60;;;6.20;99.90;;;;;;5054554;28;20161;-77
2023/04/09 07:03:54;;;;;;;5.53;3.95;;;6.30;99.90;;;;;;5054264;28;20295;-77
2023/04/09 07:06:20;;;;;;;8.88;5.80;;;6.40;99.60;;;;;;5052273;28;20428;-77
2023/04/09 07:08:46;;;;;;;6.32;5.15;;;6.30;99.00;;;;;;5053331;28;20025;-77
2023/04/09 07:11:11;;;;;;;6.28;5.10;;;6.30;98.80;;;;;;5054662;28;20048;-76
2023/04/09 07:13:40;;;;;;;6.00;5.35;;;6.40;98.70;;;;;;5054592;28;20481;-78
2023/04/09 07:16:06;;;;;;;7.05;5.60;;;6.50;98.40;;;;;;5048464;28;20064;-76
2023/04/09 07:18:35;;;;;;;6.63;5.15;;;6.50;98.00;;;;;;5037374;28;20486;-76
2023/04/09 07:21:00;;;;;;;4.63;4.10;;;6.60;97.70;;;;;;5058993;28;20043;-77
2023/04/09 07:23:26;;;;;;;5.13;4.45;;;6.70;97.30;;;;;;5053338;28;20065;-76
2023/04/09 07:25:52;;;;;;;6.60;4.93;;;6.70;96.70;;;;;;5051904;28;20064;-76
2023/04/09 07:28:18;;;;;;;7.20;4.97;;;6.80;96.10;;;;;;5047960;28;20029;-76
2023/04/09 07:30:45;;;;;;;4.47;3.55;;;6.80;95.70;;;;;;5034932;28;20021;-78
2023/04/09 07:33:11;;;;;;;7.07;5.68;;;7.00;95.30;;;;;;5032982;28;20430;-77
2023/04/09 07:35:36;;;;;;;5.45;4.32;;;7.10;94.60;;;;;;5033636;28;20049;-75
2023/04/09 07:38:02;;;;;;;4.80;3.72;;;7.20;94.40;;;;;;5049118;28;20102;-77
2023/04/09 07:40:28;;;;;;;5.70;4.30;;;7.40;94.00;;;;;;5053759;28;20044;-78
2023/04/09 07:42:54;;;;;;;4.80;4.28;;;7.50;93.30;;;;;;5054094;28;20021;-77
2023/04/09 07:45:20;;;;;;;5.13;4.20;;;7.70;92.80;;;;;;5054135;28;20051;-78
2023/04/09 07:47:49;;;;;;;4.97;4.15;;;7.80;92.20;;;;;;5044043;28;20048;-76
2023/04/09 07:50:14;;;;;;;3.95;3.45;;;7.90;92.00;;;;;;5034455;28;20432;-76
2023/04/09 07:52:43;;;;;;;4.47;3.47;;;8.20;91.70;;;;;;5038568;28;20100;-77
2023/04/09 07:55:09;;;;;;;4.03;3.20;;;8.50;91.20;;;;;;5049442;28;20090;-75
2023/04/09 07:57:35;;;;;;;4.32;3.08;;;8.70;90.50;;;;;;5054654;28;20385;-78
2023/04/09 08:00:03;;;;;;;3.55;3.10;;;8.90;90.10;;;;;;5054281;28;20122;-78
2023/04/09 08:02:28;;;;;;;4.68;3.33;;;9.10;88.70;;;;;;5053847;28;20021;-76
2023/04/09 08:04:55;;;;;;;7.25;5.53;;;9.10;87.50;;;;;;5057787;28;20028;-77
2023/04/09 08:07:20;;;;;;;6.28;5.30;;;9.00;86.90;;;;;;5057383;28;20032;-76
2023/04/09 08:09:46;;;;;;;5.38;4.78;;;9.00;86.70;;;;;;5055092;28;20021;-76
2023/04/09 08:12:12;;;;;;;6.88;4.95;;;9.10;86.80;;;;;;5054777;28;20032;-77
2023/04/09 08:14:38;;;;;;;6.07;5.28;;;9.20;85.70;;;;;;5057616;28;20163;-76
2023/04/09 08:17:03;;;;;;;6.63;4.78;;;9.40;85.60;;;;;;5058042;28;20106;-76
2023/04/09 08:19:29;;;;;;;4.28;3.42;;;9.60;84.60;;;;;;5059690;28;20100;-77
2023/04/09 08:21:55;;;;;;;3.72;3.22;;;10.00;83.00;;;;;;5054014;28;20037;-76
2023/04/09 08:24:21;;;;;;;4.40;3.95;;;10.30;82.10;;;;;;5051611;28;20060;-77
2023/04/09 08:26:46;;;;;;;3.70;3.20;;;10.50;79.90;;;;;;5034343;28;20025;-77
2023/04/09 08:29:13;;;;;;;4.40;3.88;;;10.60;79.10;;;;;;5034590;28;20032;-78
2023/04/09 08:31:39;;;;;;;6.45;4.97;;;10.70;77.70;;;;;;5034030;28;20029;-77
2023/04/09 08:34:05;;;;;;;5.88;5.00;;;10.50;75.50;;;;;;5035638;28;20124;-77
2023/04/09 08:36:31;;;;;;;6.15;4.50;;;10.60;76.00;;;;;;5035224;28;20037;-77
2023/04/09 08:38:59;;;;;;;3.97;3.55;;;10.60;74.50;;;;;;5040410;28;20029;-76
2023/04/09 08:41:28;;;;;;;5.05;3.95;;;10.70;74.00;;;;;;5051615;28;20028;-75
2023/04/09 08:43:54;;;;;;;3.70;3.30;;;10.90;73.00;;;;;;5054697;28;20092;-78
2023/04/09 08:46:22;;;;;;;4.13;3.65;;;11.10;72.10;;;;;;5057562;28;20044;-76
2023/04/09 08:48:50;;;;;;;4.03;3.67;;;11.30;71.20;;;;;;5055991;28;20035;-76
2023/04/09 08:51:21;;;;;;;3.10;2.80;;;11.40;70.00;;;;;;5051078;28;20021;-78
2023/04/09 08:53:57;;;;;;;3.47;3.03;;;11.50;69.80;;;;;;5047301;28;20029;-77
2023/04/09 08:56:23;;;;;;;4.95;4.05;;;11.60;68.80;;;;;;5058823;28;20056;-77
2023/04/09 08:58:49;;;;;;;4.85;3.75;;;11.70;68.10;;;;;;5055821;28;20021;-76
2023/04/09 09:01:23;;;;;;;6.00;5.38;;;11.80;67.90;;;;;;5053871;28;20048;-76
2023/04/09 09:03:56;;;;;;;8.30;5.93;;;11.80;67.20;;;;;;5053623;28;20048;-76
2023/04/09 09:06:26;;;;;;;5.38;4.70;;;11.60;67.90;;;;;;5052543;28;20029;-78
2023/04/09 09:09:11;;;;;;;4.60;4.05;;;12.00;68.20;;;;;;5052599;28;20389;-76
2023/04/09 09:11:43;;;;;;;6.43;5.22;;;12.30;66.80;;;;;;5052514;28;20021;-77
2023/04/09 09:14:11;;;;;;;6.60;5.28;;;12.30;66.00;;;;;;5052978;28;20024;-77
2023/04/09 09:16:41;;;;;;;5.65;5.03;;;11.90;66.60;;;;;;5056382;28;20029;-78
2023/04/09 09:19:08;;;;;;;6.03;4.88;;;11.70;67.50;;;;;;5056421;28;20078;-76
2023/04/09 09:21:35;;;;;;;6.88;5.53;;;11.70;67.30;;;;;;5050763;28;20089;-77
2023/04/09 09:24:13;;;;;;;7.47;6.13;;;11.80;67.20;;;;;;5047152;28;20040;-77
2023/04/09 09:26:39;;;;;;;8.95;7.85;;;11.80;67.30;;;;;;5056110;28;20024;-77
2023/04/09 09:29:05;;;;;;;10.48;8.25;;;11.90;66.20;;;;;;5054568;28;20375;-77
2023/04/09 09:31:48;;;;;;;9.35;7.68;;;11.60;66.30;;;;;;5045469;28;20091;-77
2023/04/09 09:34:16;;;;;;;9.95;8.20;;;11.20;67.90;;;;;;5036097;28;20140;-77
2023/04/09 09:36:42;;;;;;;8.63;7.38;;;11.00;68.50;;;;;;5036675;28;20031;-77
2023/04/09 09:39:11;;;;;;;10.57;8.93;;;10.90;69.50;;;;;;5036402;28;20093;-77
2023/04/09 09:41:38;;;;;;;10.32;8.98;;;10.90;69.50;;;;;;5047218;28;20417;-78
2023/04/09 09:44:06;;;;;;;8.40;7.05;;;10.90;70.20;;;;;;5055937;28;20116;-77
2023/04/09 09:46:41;;;;;;;8.60;7.05;;;11.10;70.40;;;;;;5056388;28;20021;-77
2023/04/09 09:49:08;;;;;;;8.52;7.00;;;11.50;70.00;;;;;;5054860;28;20025;-77
2023/04/09 09:51:38;;;;;;;8.10;7.10;;;11.70;67.90;;;;;;5067660;28;20024;-79
2023/04/09 09:54:07;;;;;;;7.28;5.70;;;11.80;67.80;;;;;;5080568;28;20025;-79
2023/04/09 09:56:38;;;;;;;7.55;5.53;;;11.90;67.90;;;;;;5050291;28;20453;-77
2023/04/09 09:59:20;;;;;;;6.68;5.38;;;12.50;67.20;;;;;;5036641;28;20040;-77
2023/04/09 10:01:47;;;;;;;8.65;7.28;;;12.90;65.90;;;;;;5037554;28;20028;-77
2023/04/09 10:04:14;;;;;;;7.00;6.28;;;12.80;64.70;;;;;;5048551;28;20029;-77
2023/04/09 10:06:42;;;;;;;8.93;7.68;;;12.70;65.40;;;;;;5059300;28;20024;-78
2023/04/09 10:09:09;;;;;;;6.43;5.75;;;12.60;64.00;;;;;;5059959;28;20025;-77
2023/04/09 10:11:36;;;;;;;6.82;5.70;;;12.60;65.20;;;;;;5055308;28;20108;-77
2023/04/09 10:14:04;;;;;;;5.90;5.20;;;12.90;65.30;;;;;;5056065;28;20082;-77
2023/04/09 10:16:30;;;;;;;6.63;5.93;;;13.20;63.90;;;;;;5054677;28;20416;-78
2023/04/09 10:18:57;;;;;;;7.15;5.60;;;13.20;62.90;;;;;;5054937;28;20029;-78
2023/04/09 10:21:26;;;;;;;7.05;5.97;;;13.20;63.30;;;;;;5054743;28;20024;-78
2023/04/09 10:23:52;;;;;;;5.88;5.28;;;13.10;62.90;;;;;;5054588;28;20025;-77
2023/04/09 10:26:19;;;;;;;6.40;5.65;;;12.90;63.00;;;;;;5052916;28;20091;-77
2023/04/09 10:28:45;;;;;;;8.93;7.80;;;12.70;63.40;;;;;;5054628;28;20107;-77
2023/04/09 10:31:10;;;;;;;8.82;7.90;;;12.70;62.30;;;;;;5054989;28;20025;-77
2023/04/09 10:33:37;;;;;;;9.02;7.70;;;12.60;62.40;;;;;;5054105;28;20039;-78
2023/04/09 10:36:11;;;;;;;9.07;7.63;;;12.50;63.20;;;;;;5045983;28;20025;-76
2023/04/09 10:38:39;;;;;;;8.57;7.03;;;12.50;63.70;;;;;;5054097;28;20024;-77
2023/04/09 10:41:26;;;;;;;8.57;6.22;;;12.50;63.10;;;;;;5053986;28;20018;-78
2023/04/09 10:43:52;;;;;;;6.45;5.63;;;12.60;63.50;;;;;;5054670;28;20032;-76
2023/04/09 10:46:27;;;;;;;6.25;5.50;;;12.80;63.10;;;;;;5053776;28;20084;-78
2023/04/09 10:49:16;;;;;;;4.85;4.35;;;12.80;63.50;;;;;;5052641;28;20049;-76
2023/04/09 10:51:49;;;;;;;5.85;5.10;;;12.90;63.50;;;;;;5053903;28;20104;-78
2023/04/09 10:54:33;;;;;;;7.53;6.10;;;13.00;63.20;;;;;;5053144;28;20043;-78
2023/04/09 10:57:18;;;;;;;6.57;5.47;;;12.90;63.30;;;;;;5053966;28;20037;-78
2023/04/09 10:59:49;;;;;;;8.88;7.38;;;12.90;63.90;;;;;;5053955;28;20017;-77
2023/04/09 11:02:44;;;;;;;11.35;9.63;;;12.70;64.00;;;;;;5053589;28;20065;-77
2023/04/09 11:05:21;;;;;;;11.52;9.93;;;12.60;63.30;;;;;;5034726;28;20037;-76
2023/04/09 11:08:06;;;;;;;11.90;9.70;;;12.20;63.80;;;;;;5052511;28;20324;-77
2023/04/09 11:10:32;;;;;;;12.38;9.23;;;12.10;64.60;;;;;;5053768;28;20029;-76
2023/04/09 11:12:59;;;;;;;11.82;9.75;;;12.30;65.20;;;;;;5054379;28;20023;-78
2023/04/09 11:15:24;;;;;;;11.63;9.57;;;12.20;63.90;;;;;;5052571;28;20029;-78
2023/04/09 11:17:50;;;;;;;12.30;9.60;;;12.10;64.50;;;;;;5032556;28;20036;-77
2023/04/09 11:20:19;;;;;;;12.00;10.48;;;12.10;64.90;;;;;;5032673;28;20052;-77
2023/04/09 11:22:46;;;;;;;12.98;11.50;;;12.30;64.00;;;;;;5033565;28;20072;-78
2023/04/09 11:25:25;;;;;;;12.07;10.35;;;12.40;62.20;;;;;;5044928;28;20105;-78
2023/04/09 11:27:51;;;;;;;13.55;10.65;;;12.40;63.20;;;;;;5057531;28;20108;-78
2023/04/09 11:30:17;;;;;;;14.13;9.85;;;12.30;63.30;;;;;;5059665;28;20033;-76
2023/04/09 11:32:43;;;;;;;10.07;7.80;;;12.20;62.90;;;;;;5055477;28;20023;-77
2023/04/09 11:35:14;;;;;;;8.32;6.68;;;12.40;64.30;;;;;;5044561;28;20417;-78
2023/04/09 11:37:41;;;;;;;7.30;5.97;;;12.60;63.30;;;;;;5052257;28;20036;-77
2023/04/09 11:40:20;;;;;;;9.27;7.38;;;12.70;62.20;;;;;;5053601;28;20033;-75
2023/04/09 11:42:48;;;;;;;11.02;8.68;;;12.80;60.80;;;;;;5052393;28;20071;-77
2023/04/09 11:45:15;;;;;;;7.88;6.78;;;12.60;59.70;;;;;;5051920;28;20025;-78
2023/04/09 11:47:41;;;;;;;7.93;6.72;;;12.40;60.80;;;;;;5053553;28;20100;-77
2023/04/09 11:50:08;;;;;;;13.32;10.50;;;12.40;61.30;;;;;;5053391;28;20090;-77
2023/04/09 11:52:34;;;;;;;12.70;10.35;;;12.30;61.30;;;;;;5051551;28;20048;-77
2023/04/09 11:55:03;;;;;;;11.18;9.18;;;12.10;61.70;;;;;;5052322;28;20031;-78
2023/04/09 11:58:01;;;;;;;9.55;7.72;;;12.00;62.30;;;;;;5051965;28;20029;-76
2023/04/09 12:00:28;;;;;;;7.93;6.70;;;11.80;63.60;;;;;;5053218;28;20384;-76
2023/04/09 12:03:02;;;;;;;7.95;7.15;;;11.80;63.50;;;;;;5048952;28;20466;-78
2023/04/09 12:05:33;;;;;;;7.65;6.18;;;11.80;63.60;;;;;;5046152;28;20029;-80
2023/04/09 12:08:00;;;;;;;8.95;7.28;;;11.80;64.00;;;;;;5041472;28;20174;-76
2023/04/09 12:10:31;;;;;;;9.70;8.02;;;11.80;63.40;;;;;;5036000;28;20524;-77
2023/04/09 12:13:02;;;;;;;8.35;7.13;;;11.80;63.30;;;;;;5051844;28;20032;-77
2023/04/09 12:15:31;;;;;;;11.15;9.27;;;11.80;64.00;;;;;;5050977;28;20029;-75
2023/04/09 12:17:57;;;;;;;12.48;9.95;;;11.90;63.90;;;;;;5049020;28;20113;-76
2023/04/09 12:20:27;;;;;;;9.95;8.48;;;11.80;63.20;;;;;;5055806;28;20032;-76
2023/04/09 12:22:54;;;;;;;8.45;7.28;;;11.70;63.10;;;;;;5052572;28;20021;-76
2023/04/09 12:25:19;;;;;;;10.60;8.18;;;11.80;63.50;;;;;;5051324;28;20025;-75
2023/04/09 12:27:45;;;;;;;8.07;6.57;;;11.90;63.00;;;;;;5041923;28;20541;-75
2023/04/09 12:30:11;;;;;;;9.52;7.70;;;12.10;63.30;;;;;;5047898;28;20031;-76
2023/04/09 12:32:37;;;;;;;10.85;8.15;;;12.20;61.90;;;;;;5036606;28;20385;-76
2023/04/09 12:35:03;;;;;;;8.32;7.18;;;12.10;61.90;;;;;;5036239;28;20020;-76
2023/04/09 12:37:29;;;;;;;12.07;9.75;;;12.20;62.40;;;;;;5037735;28;20032;-76
2023/04/09 12:39:55;;;;;;;12.57;10.43;;;12.20;62.00;;;;;;5043172;28;20703;-76
2023/04/09 12:42:21;;;;;;;9.73;8.70;;;12.20;62.70;;;;;;5044065;28;20420;-76
2023/04/09 12:44:46;;;;;;;10.52;7.78;;;12.30;61.90;;;;;;5040536;28;20105;-75
2023/04/09 12:47:12;;;;;;;8.20;6.38;;;12.60;62.20;;;;;;5048307;28;20025;-74
2023/04/09 12:49:38;;;;;;;6.80;6.10;;;12.80;61.40;;;;;;5041168;28;20029;-75
2023/04/09 12:52:04;;;;;;;6.90;5.70;;;13.00;60.40;;;;;;5043354;28;20101;-74
2023/04/09 12:54:30;;;;;;;9.35;7.90;;;13.20;60.50;;;;;;5052204;28;20018;-79
2023/04/09 12:56:56;;;;;;;10.13;8.35;;;13.50;59.20;;;;;;5048988;28;20045;-74